sensor_id;sensor_type;location;lat;lon;timestamp;pressure;altitude;pressure_sealevel;temperature;humidity
63033;BME280;49121;38.932;-9.018;2023-02-20T00:01:25;111992.50;;;-145.11;71.76
63033;BME280;49121;38.932;-9.018;2023-02-20T00:03:25;111992.50;;;-145.11;71.43
63033;BME280;49121;38.932;-9.018;2023-02-20T00:05:26;111992.50;;;-145.11;71.02
63033;BME280;49121;38.932;-9.018;2023-02-20T00:07:27;111992.50;;;-145.11;70.71
63033;BME280;49121;38.932;-9.018;2023-02-20T00:09:46;111992.50;;;-145.11;70.57
63033;BME280;49121;38.932;-9.018;2023-02-20T00:11:46;111992.50;;;-145.11;70.49
63033;BME280;49121;38.932;-9.018;2023-02-20T00:13:47;111992.50;;;-145.11;70.67
63033;BME280;49121;38.932;-9.018;2023-02-20T00:18:07;111992.50;;;-145.11;71.16
63033;BME280;49121;38.932;-9.018;2023-02-20T00:20:27;111992.50;;;-145.11;71.04
63033;BME280;49121;38.932;-9.018;2023-02-20T00:22:29;111992.50;;;-145.11;71.24
63033;BME280;49121;38.932;-9.018;2023-02-20T00:24:30;111992.50;;;-145.11;71.41
63033;BME280;49121;38.932;-9.018;2023-02-20T00:26:33;111992.50;;;-145.11;71.49
63033;BME280;49121;38.932;-9.018;2023-02-20T00:28:37;111992.50;;;-145.11;71.63
63033;BME280;49121;38.932;-9.018;2023-02-20T00:33:23;111992.50;;;-145.11;71.63
63033;BME280;49121;38.932;-9.018;2023-02-20T00:35:25;111992.50;;;-145.11;71.68
63033;BME280;49121;38.932;-9.018;2023-02-20T00:37:26;111992.50;;;-145.11;71.75
63033;BME280;49121;38.932;-9.018;2023-02-20T00:39:27;111992.50;;;-145.11;71.76
63033;BME280;49121;38.932;-9.018;2023-02-20T00:41:28;111992.50;;;-145.11;71.77
63033;BME280;49121;38.932;-9.018;2023-02-20T00:43:29;111992.50;;;-145.11;71.40
63033;BME280;49121;38.932;-9.018;2023-02-20T00:45:30;111992.50;;;-145.11;71.48
63033;BME280;49121;38.932;-9.018;2023-02-20T00:47:31;111992.50;;;-145.11;71.93
63033;BME280;49121;38.932;-9.018;2023-02-20T00:49:32;111992.50;;;-145.11;71.74
63033;BME280;49121;38.932;-9.018;2023-02-20T00:51:42;111992.50;;;-145.11;71.46
63033;BME280;49121;38.932;-9.018;2023-02-20T00:53:43;111992.50;;;-145.11;71.58
63033;BME280;49121;38.932;-9.018;2023-02-20T00:58:21;111992.50;;;-145.11;71.10
63033;BME280;49121;38.932;-9.018;2023-02-20T01:00:27;111992.50;;;-145.11;70.71
63033;BME280;49121;38.932;-9.018;2023-02-20T01:02:28;111992.50;;;-145.11;69.94
63033;BME280;49121;38.932;-9.018;2023-02-20T01:07:07;111992.50;;;-145.11;69.17
63033;BME280;49121;38.932;-9.018;2023-02-20T01:09:07;111992.50;;;-145.11;69.22
63033;BME280;49121;38.932;-9.018;2023-02-20T01:11:08;111992.50;;;-145.11;69.49
63033;BME280;49121;38.932;-9.018;2023-02-20T01:13:18;111992.50;;;-145.11;69.29
63033;BME280;49121;38.932;-9.018;2023-02-20T01:15:19;111992.50;;;-145.11;69.57
63033;BME280;49121;38.932;-9.018;2023-02-20T01:17:19;111992.50;;;-145.11;70.44
63033;BME280;49121;38.932;-9.018;2023-02-20T01:19:22;111992.50;;;-145.11;69.32
63033;BME280;49121;38.932;-9.018;2023-02-20T01:21:23;111992.50;;;-145.11;65.92
63033;BME280;49121;38.932;-9.018;2023-02-20T01:23:23;111992.50;;;-145.11;63.52
63033;BME280;49121;38.932;-9.018;2023-02-20T01:25:26;111992.50;;;-145.11;63.12
63033;BME280;49121;38.932;-9.018;2023-02-20T01:27:31;111992.50;;;-145.11;63.54
63033;BME280;49121;38.932;-9.018;2023-02-20T01:29:33;111992.50;;;-145.11;65.03
63033;BME280;49121;38.932;-9.018;2023-02-20T01:31:35;111992.50;;;-145.11;66.03
63033;BME280;49121;38.932;-9.018;2023-02-20T01:33:39;111992.50;;;-145.11;66.21
63033;BME280;49121;38.932;-9.018;2023-02-20T01:35:40;111992.50;;;-145.11;66.43
63033;BME280;49121;38.932;-9.018;2023-02-20T01:37:40;111992.50;;;-145.11;66.91
63033;BME280;49121;38.932;-9.018;2023-02-20T01:42:06;111992.50;;;-145.11;66.98
63033;BME280;49121;38.932;-9.018;2023-02-20T01:44:20;111992.50;;;-145.11;67.16
63033;BME280;49121;38.932;-9.018;2023-02-20T01:48:28;111992.50;;;-145.11;67.65
63033;BME280;49121;38.932;-9.018;2023-02-20T01:50:39;111992.50;;;-145.11;68.13
63033;BME280;49121;38.932;-9.018;2023-02-20T01:52:42;111992.50;;;-145.11;69.00
63033;BME280;49121;38.932;-9.018;2023-02-20T01:54:49;111992.50;;;-145.11;68.96
63033;BME280;49121;38.932;-9.018;2023-02-20T01:56:52;111992.50;;;-145.11;69.44
63033;BME280;49121;38.932;-9.018;2023-02-20T01:58:54;111992.50;;;-145.11;69.54
63033;BME280;49121;38.932;-9.018;2023-02-20T02:01:04;111992.50;;;-145.11;67.46
63033;BME280;49121;38.932;-9.018;2023-02-20T02:03:09;111992.50;;;-145.11;67.21
63033;BME280;49121;38.932;-9.018;2023-02-20T02:05:11;111992.50;;;-145.11;67.50
63033;BME280;49121;38.932;-9.018;2023-02-20T02:07:12;111992.50;;;-145.11;67.86
63033;BME280;49121;38.932;-9.018;2023-02-20T02:09:41;111992.50;;;-145.11;68.63
63033;BME280;49121;38.932;-9.018;2023-02-20T02:11:43;111992.50;;;-145.11;69.10
63033;BME280;49121;38.932;-9.018;2023-02-20T02:13:45;111992.50;;;-145.11;69.71
63033;BME280;49121;38.932;-9.018;2023-02-20T02:15:45;111992.50;;;-145.11;70.24
63033;BME280;49121;38.932;-9.018;2023-02-20T02:37:37;111992.50;;;-145.11;70.71
63033;BME280;49121;38.932;-9.018;2023-02-20T02:39:47;111992.50;;;-145.11;71.17
63033;BME280;49121;38.932;-9.018;2023-02-20T02:42:26;111992.50;;;-145.11;71.33
63033;BME280;49121;38.932;-9.018;2023-02-20T02:46:57;111992.50;;;-145.11;71.49
63033;BME280;49121;38.932;-9.018;2023-02-20T02:51:31;111992.50;;;-145.11;71.07
63033;BME280;49121;38.932;-9.018;2023-02-20T02:53:34;111992.50;;;-145.11;70.94
63033;BME280;49121;38.932;-9.018;2023-02-20T02:55:35;111992.50;;;-145.11;70.37
63033;BME280;49121;38.932;-9.018;2023-02-20T02:57:35;111992.50;;;-145.11;70.40
63033;BME280;49121;38.932;-9.018;2023-02-20T02:59:36;111992.50;;;-145.11;70.38
63033;BME280;49121;38.932;-9.018;2023-02-20T03:01:42;111992.50;;;-145.11;70.05
63033;BME280;49121;38.932;-9.018;2023-02-20T03:03:45;111992.50;;;-145.11;69.52
63033;BME280;49121;38.932;-9.018;2023-02-20T03:07:54;111992.50;;;-145.11;69.58
63033;BME280;49121;38.932;-9.018;2023-02-20T03:10:08;111992.50;;;-145.11;69.88
63033;BME280;49121;38.932;-9.018;2023-02-20T03:12:12;111992.50;;;-145.11;69.68
63033;BME280;49121;38.932;-9.018;2023-02-20T03:14:22;111992.50;;;-145.11;69.24
63033;BME280;49121;38.932;-9.018;2023-02-20T03:18:51;111992.50;;;-145.11;68.95
63033;BME280;49121;38.932;-9.018;2023-02-20T03:21:00;111992.50;;;-145.11;69.07
63033;BME280;49121;38.932;-9.018;2023-02-20T03:23:04;111992.50;;;-145.11;69.25
63033;BME280;49121;38.932;-9.018;2023-02-20T03:25:16;111992.50;;;-145.11;69.19
63033;BME280;49121;38.932;-9.018;2023-02-20T03:30:21;111992.50;;;-145.11;68.96
63033;BME280;49121;38.932;-9.018;2023-02-20T03:32:26;111992.50;;;-145.11;68.80
63033;BME280;49121;38.932;-9.018;2023-02-20T03:34:47;111992.50;;;-145.11;69.18
63033;BME280;49121;38.932;-9.018;2023-02-20T03:37:13;111992.50;;;-145.11;69.46
63033;BME280;49121;38.932;-9.018;2023-02-20T03:39:38;111992.50;;;-145.11;69.96
63033;BME280;49121;38.932;-9.018;2023-02-20T03:42:06;111992.50;;;-145.11;69.63
63033;BME280;49121;38.932;-9.018;2023-02-20T03:44:34;111992.50;;;-145.11;69.51
63033;BME280;49121;38.932;-9.018;2023-02-20T03:46:36;111992.50;;;-145.11;69.42
63033;BME280;49121;38.932;-9.018;2023-02-20T03:50:45;111992.50;;;-145.11;69.00
63033;BME280;49121;38.932;-9.018;2023-02-20T03:53:12;111992.50;;;-145.11;69.00
63033;BME280;49121;38.932;-9.018;2023-02-20T03:55:14;111992.50;;;-145.11;69.32
63033;BME280;49121;38.932;-9.018;2023-02-20T03:57:16;111992.50;;;-145.11;69.27
63033;BME280;49121;38.932;-9.018;2023-02-20T03:59:24;111992.50;;;-145.11;68.69
63033;BME280;49121;38.932;-9.018;2023-02-20T04:01:26;111992.50;;;-145.11;67.50
63033;BME280;49121;38.932;-9.018;2023-02-20T04:03:31;111992.50;;;-145.11;66.61
63033;BME280;49121;38.932;-9.018;2023-02-20T04:05:36;111992.50;;;-145.11;65.57
63033;BME280;49121;38.932;-9.018;2023-02-20T04:10:21;111992.50;;;-145.11;64.32
63033;BME280;49121;38.932;-9.018;2023-02-20T04:12:26;111992.50;;;-145.11;64.85
63033;BME280;49121;38.932;-9.018;2023-02-20T04:14:34;111992.50;;;-145.11;66.21
63033;BME280;49121;38.932;-9.018;2023-02-20T04:16:44;111992.50;;;-145.11;66.58
63033;BME280;49121;38.932;-9.018;2023-02-20T04:18:47;111992.50;;;-145.11;67.01
63033;BME280;49121;38.932;-9.018;2023-02-20T04:21:16;111992.50;;;-145.11;67.80
63033;BME280;49121;38.932;-9.018;2023-02-20T04:23:20;111992.50;;;-145.11;67.88
63033;BME280;49121;38.932;-9.018;2023-02-20T04:25:31;111992.50;;;-145.11;68.30
63033;BME280;49121;38.932;-9.018;2023-02-20T04:27:37;111992.50;;;-145.11;68.61
63033;BME280;49121;38.932;-9.018;2023-02-20T04:29:38;111992.50;;;-145.11;69.38
63033;BME280;49121;38.932;-9.018;2023-02-20T04:31:39;111992.50;;;-145.11;69.74
63033;BME280;49121;38.932;-9.018;2023-02-20T04:33:39;111992.50;;;-145.11;70.16
63033;BME280;49121;38.932;-9.018;2023-02-20T04:35:46;111992.50;;;-145.11;70.42
63033;BME280;49121;38.932;-9.018;2023-02-20T04:37:48;111992.50;;;-145.11;70.87
63033;BME280;49121;38.932;-9.018;2023-02-20T04:39:48;111992.50;;;-145.11;70.90
63033;BME280;49121;38.932;-9.018;2023-02-20T04:41:53;111992.50;;;-145.11;71.68
63033;BME280;49121;38.932;-9.018;2023-02-20T04:43:54;111992.50;;;-145.11;71.77
63033;BME280;49121;38.932;-9.018;2023-02-20T04:46:15;111992.50;;;-145.11;72.35
63033;BME280;49121;38.932;-9.018;2023-02-20T04:48:16;111992.50;;;-145.11;72.73
63033;BME280;49121;38.932;-9.018;2023-02-20T04:50:32;111992.50;;;-145.11;72.65
63033;BME280;49121;38.932;-9.018;2023-02-20T04:52:33;111992.50;;;-145.11;72.69
63033;BME280;49121;38.932;-9.018;2023-02-20T04:54:34;111992.50;;;-145.11;72.78
63033;BME280;49121;38.932;-9.018;2023-02-20T04:56:37;111992.50;;;-145.11;72.54
63033;BME280;49121;38.932;-9.018;2023-02-20T04:58:39;111992.50;;;-145.11;72.76
63033;BME280;49121;38.932;-9.018;2023-02-20T05:00:49;111992.50;;;-145.11;72.83
63033;BME280;49121;38.932;-9.018;2023-02-20T05:02:50;111992.50;;;-145.11;73.30
63033;BME280;49121;38.932;-9.018;2023-02-20T05:04:50;111992.50;;;-145.11;73.09
63033;BME280;49121;38.932;-9.018;2023-02-20T05:06:53;111992.50;;;-145.11;72.89
63033;BME280;49121;38.932;-9.018;2023-02-20T05:08:54;111992.50;;;-145.11;72.76
63033;BME280;49121;38.932;-9.018;2023-02-20T05:10:54;111992.50;;;-145.11;72.85
63033;BME280;49121;38.932;-9.018;2023-02-20T05:15:14;111992.50;;;-145.11;72.64
63033;BME280;49121;38.932;-9.018;2023-02-20T05:17:15;111992.50;;;-145.11;72.54
63033;BME280;49121;38.932;-9.018;2023-02-20T05:19:16;111992.50;;;-145.11;72.35
63033;BME280;49121;38.932;-9.018;2023-02-20T05:21:16;111992.50;;;-145.11;72.33
63033;BME280;49121;38.932;-9.018;2023-02-20T05:23:36;111992.50;;;-145.11;72.51
63033;BME280;49121;38.932;-9.018;2023-02-20T05:25:36;111992.50;;;-145.11;72.69
63033;BME280;49121;38.932;-9.018;2023-02-20T05:27:37;111992.50;;;-145.11;73.15
63033;BME280;49121;38.932;-9.018;2023-02-20T05:29:38;111992.50;;;-145.11;73.34
63033;BME280;49121;38.932;-9.018;2023-02-20T05:31:39;111992.50;;;-145.11;73.26
63033;BME280;49121;38.932;-9.018;2023-02-20T05:33:40;111992.50;;;-145.11;72.94
63033;BME280;49121;38.932;-9.018;2023-02-20T05:35:59;111992.50;;;-145.11;73.11
63033;BME280;49121;38.932;-9.018;2023-02-20T05:38:00;111992.50;;;-145.11;72.93
63033;BME280;49121;38.932;-9.018;2023-02-20T05:40:02;111992.50;;;-145.11;72.69
63033;BME280;49121;38.932;-9.018;2023-02-20T05:42:04;111992.50;;;-145.11;72.96
63033;BME280;49121;38.932;-9.018;2023-02-20T05:44:05;111992.50;;;-145.11;72.67
63033;BME280;49121;38.932;-9.018;2023-02-20T05:46:10;111992.50;;;-145.11;72.54
63033;BME280;49121;38.932;-9.018;2023-02-20T05:48:11;111992.50;;;-145.11;72.87
63033;BME280;49121;38.932;-9.018;2023-02-20T05:50:12;111992.50;;;-145.11;73.10
63033;BME280;49121;38.932;-9.018;2023-02-20T05:52:14;111992.50;;;-145.11;72.99
63033;BME280;49121;38.932;-9.018;2023-02-20T05:54:16;111992.50;;;-145.11;73.17
63033;BME280;49121;38.932;-9.018;2023-02-20T05:56:17;111992.50;;;-145.11;73.01
63033;BME280;49121;38.932;-9.018;2023-02-20T05:58:18;111992.50;;;-145.11;73.15
63033;BME280;49121;38.932;-9.018;2023-02-20T06:00:19;111992.50;;;-145.11;73.35
63033;BME280;49121;38.932;-9.018;2023-02-20T06:02:20;111992.50;;;-145.11;73.37
63033;BME280;49121;38.932;-9.018;2023-02-20T06:04:20;111992.50;;;-145.11;73.17
63033;BME280;49121;38.932;-9.018;2023-02-20T06:06:21;111992.50;;;-145.11;73.10
63033;BME280;49121;38.932;-9.018;2023-02-20T06:08:23;111992.50;;;-145.11;73.10
63033;BME280;49121;38.932;-9.018;2023-02-20T06:10:23;111992.50;;;-145.11;73.28
63033;BME280;49121;38.932;-9.018;2023-02-20T06:18:03;111992.50;;;-145.11;73.11
63033;BME280;49121;38.932;-9.018;2023-02-20T06:20:04;111992.50;;;-145.11;73.05
63033;BME280;49121;38.932;-9.018;2023-02-20T06:22:05;111992.50;;;-145.11;73.15
63033;BME280;49121;38.932;-9.018;2023-02-20T06:24:06;111992.50;;;-145.11;73.04
63033;BME280;49121;38.932;-9.018;2023-02-20T06:26:12;111992.50;;;-145.11;73.27
63033;BME280;49121;38.932;-9.018;2023-02-20T06:28:12;111992.50;;;-145.11;73.28
63033;BME280;49121;38.932;-9.018;2023-02-20T06:30:13;111992.50;;;-145.11;73.62
63033;BME280;49121;38.932;-9.018;2023-02-20T06:32:14;111992.50;;;-145.11;74.09
63033;BME280;49121;38.932;-9.018;2023-02-20T06:34:15;111992.50;;;-145.11;74.00
63033;BME280;49121;38.932;-9.018;2023-02-20T06:36:25;111992.50;;;-145.11;74.52
63033;BME280;49121;38.932;-9.018;2023-02-20T06:38:44;111992.50;;;-145.11;74.87
63033;BME280;49121;38.932;-9.018;2023-02-20T06:41:03;111992.50;;;-145.11;75.00
63033;BME280;49121;38.932;-9.018;2023-02-20T06:43:04;111992.50;;;-145.11;75.25
63033;BME280;49121;38.932;-9.018;2023-02-20T06:45:04;111992.50;;;-145.11;75.38
63033;BME280;49121;38.932;-9.018;2023-02-20T06:47:05;111992.50;;;-145.11;75.10
63033;BME280;49121;38.932;-9.018;2023-02-20T06:49:08;111992.50;;;-145.11;73.94
63033;BME280;49121;38.932;-9.018;2023-02-20T06:51:09;111992.50;;;-145.11;73.64
63033;BME280;49121;38.932;-9.018;2023-02-20T06:53:09;111992.50;;;-145.11;73.34
63033;BME280;49121;38.932;-9.018;2023-02-20T06:55:10;111992.50;;;-145.11;73.42
63033;BME280;49121;38.932;-9.018;2023-02-20T06:57:10;111992.50;;;-145.11;73.53
63033;BME280;49121;38.932;-9.018;2023-02-20T06:59:11;111992.50;;;-145.11;73.49
63033;BME280;49121;38.932;-9.018;2023-02-20T07:01:30;111992.50;;;-145.11;73.47
63033;BME280;49121;38.932;-9.018;2023-02-20T07:03:31;111992.50;;;-145.11;73.58
63033;BME280;49121;38.932;-9.018;2023-02-20T07:05:31;111992.50;;;-145.11;74.03
63033;BME280;49121;38.932;-9.018;2023-02-20T07:07:32;111992.50;;;-145.11;73.96
63033;BME280;49121;38.932;-9.018;2023-02-20T07:09:33;111992.50;;;-145.11;74.04
63033;BME280;49121;38.932;-9.018;2023-02-20T07:11:33;111992.50;;;-145.11;74.09
63033;BME280;49121;38.932;-9.018;2023-02-20T07:13:34;111992.50;;;-145.11;73.62
63033;BME280;49121;38.932;-9.018;2023-02-20T07:15:36;111992.50;;;-145.11;73.51
63033;BME280;49121;38.932;-9.018;2023-02-20T07:17:37;111992.50;;;-145.11;73.63
63033;BME280;49121;38.932;-9.018;2023-02-20T07:19:37;111992.50;;;-145.11;73.95
63033;BME280;49121;38.932;-9.018;2023-02-20T07:21:38;111992.50;;;-145.11;73.78
63033;BME280;49121;38.932;-9.018;2023-02-20T07:23:39;111992.50;;;-145.11;73.43
63033;BME280;49121;38.932;-9.018;2023-02-20T07:25:39;111992.50;;;-145.11;73.14
63033;BME280;49121;38.932;-9.018;2023-02-20T07:27:40;111992.50;;;-145.11;73.01
63033;BME280;49121;38.932;-9.018;2023-02-20T07:29:44;111992.50;;;-145.11;73.18
63033;BME280;49121;38.932;-9.018;2023-02-20T07:31:45;111992.50;;;-145.11;73.48
63033;BME280;49121;38.932;-9.018;2023-02-20T07:33:45;111992.50;;;-145.11;73.21
63033;BME280;49121;38.932;-9.018;2023-02-20T07:35:46;111992.50;;;-145.11;72.29
63033;BME280;49121;38.932;-9.018;2023-02-20T07:37:48;111992.50;;;-145.11;72.29
63033;BME280;49121;38.932;-9.018;2023-02-20T07:39:49;111992.50;;;-145.11;71.13
63033;BME280;49121;38.932;-9.018;2023-02-20T07:41:49;111992.50;;;-145.11;70.76
63033;BME280;49121;38.932;-9.018;2023-02-20T07:44:11;111992.50;;;-145.11;69.92
63033;BME280;49121;38.932;-9.018;2023-02-20T07:46:14;111992.50;;;-145.11;70.11
63033;BME280;49121;38.932;-9.018;2023-02-20T07:48:18;111992.50;;;-145.11;69.57
63033;BME280;49121;38.932;-9.018;2023-02-20T07:50:19;111992.50;;;-145.11;69.66
63033;BME280;49121;38.932;-9.018;2023-02-20T07:52:19;111992.50;;;-145.11;69.41
63033;BME280;49121;38.932;-9.018;2023-02-20T07:54:20;111992.50;;;-145.11;67.31
63033;BME280;49121;38.932;-9.018;2023-02-20T07:56:21;111992.50;;;-145.11;66.04
63033;BME280;49121;38.932;-9.018;2023-02-20T07:58:31;111992.50;;;-145.11;66.08
63033;BME280;49121;38.932;-9.018;2023-02-20T08:00:31;111992.50;;;-145.11;66.20
63033;BME280;49121;38.932;-9.018;2023-02-20T08:02:32;111992.50;;;-145.11;66.62
63033;BME280;49121;38.932;-9.018;2023-02-20T08:04:32;111992.50;;;-145.11;66.84
63033;BME280;49121;38.932;-9.018;2023-02-20T08:06:33;111992.50;;;-145.11;66.88
63033;BME280;49121;38.932;-9.018;2023-02-20T08:08:34;111992.50;;;-145.11;67.54
63033;BME280;49121;38.932;-9.018;2023-02-20T08:10:34;111992.50;;;-145.11;67.55
63033;BME280;49121;38.932;-9.018;2023-02-20T08:12:35;111992.50;;;-145.11;67.68
63033;BME280;49121;38.932;-9.018;2023-02-20T08:14:35;111992.50;;;-145.11;67.93
63033;BME280;49121;38.932;-9.018;2023-02-20T08:16:37;111992.50;;;-145.11;68.22
63033;BME280;49121;38.932;-9.018;2023-02-20T08:18:38;111992.50;;;-145.11;68.70
63033;BME280;49121;38.932;-9.018;2023-02-20T08:20:39;111992.50;;;-145.11;68.92
63033;BME280;49121;38.932;-9.018;2023-02-20T08:22:39;111992.50;;;-145.11;69.01
63033;BME280;49121;38.932;-9.018;2023-02-20T08:24:40;111992.50;;;-145.11;69.01
63033;BME280;49121;38.932;-9.018;2023-02-20T08:26:43;111992.50;;;-145.11;68.85
63033;BME280;49121;38.932;-9.018;2023-02-20T08:28:46;111992.50;;;-145.11;68.63
63033;BME280;49121;38.932;-9.018;2023-02-20T08:30:55;111992.50;;;-145.11;68.50
63033;BME280;49121;38.932;-9.018;2023-02-20T08:32:55;111992.50;;;-145.11;67.42
63033;BME280;49121;38.932;-9.018;2023-02-20T08:34:56;111992.50;;;-145.11;66.40
63033;BME280;49121;38.932;-9.018;2023-02-20T08:36:56;111992.50;;;-145.11;66.30
63033;BME280;49121;38.932;-9.018;2023-02-20T08:38:57;111992.50;;;-145.11;66.38
63033;BME280;49121;38.932;-9.018;2023-02-20T08:41:05;111992.50;;;-145.11;65.34
63033;BME280;49121;38.932;-9.018;2023-02-20T08:45:42;111992.50;;;-145.11;64.34
63033;BME280;49121;38.932;-9.018;2023-02-20T08:47:43;111992.50;;;-145.11;63.47
63033;BME280;49121;38.932;-9.018;2023-02-20T08:49:45;111992.50;;;-145.11;62.53
63033;BME280;49121;38.932;-9.018;2023-02-20T08:51:47;111992.50;;;-145.11;62.70
63033;BME280;49121;38.932;-9.018;2023-02-20T08:53:52;111992.50;;;-145.11;62.34
63033;BME280;49121;38.932;-9.018;2023-02-20T08:55:52;111992.50;;;-145.11;61.98
63033;BME280;49121;38.932;-9.018;2023-02-20T08:57:53;111992.50;;;-145.11;60.92
63033;BME280;49121;38.932;-9.018;2023-02-20T08:59:55;111992.50;;;-145.11;60.92
63033;BME280;49121;38.932;-9.018;2023-02-20T09:01:55;111992.50;;;-145.11;60.34
63033;BME280;49121;38.932;-9.018;2023-02-20T09:03:56;111992.50;;;-145.11;60.37
63033;BME280;49121;38.932;-9.018;2023-02-20T09:08:16;111992.50;;;-145.11;58.76
63033;BME280;49121;38.932;-9.018;2023-02-20T09:10:17;111992.50;;;-145.11;57.12
63033;BME280;49121;38.932;-9.018;2023-02-20T09:12:19;111992.50;;;-145.11;57.23
63033;BME280;49121;38.932;-9.018;2023-02-20T09:14:19;111992.50;;;-145.11;57.03
63033;BME280;49121;38.932;-9.018;2023-02-20T09:16:22;111992.50;;;-145.11;57.47
63033;BME280;49121;38.932;-9.018;2023-02-20T09:18:23;111992.50;;;-145.11;57.45
63033;BME280;49121;38.932;-9.018;2023-02-20T09:20:23;111992.50;;;-145.11;57.27
63033;BME280;49121;38.932;-9.018;2023-02-20T09:22:25;111992.50;;;-145.11;56.79
63033;BME280;49121;38.932;-9.018;2023-02-20T09:27:02;111992.50;;;-145.11;55.68
63033;BME280;49121;38.932;-9.018;2023-02-20T09:29:05;111992.50;;;-145.11;56.72
63033;BME280;49121;38.932;-9.018;2023-02-20T09:31:06;111992.50;;;-145.11;57.36
63033;BME280;49121;38.932;-9.018;2023-02-20T09:33:07;111992.50;;;-145.11;56.82
63033;BME280;49121;38.932;-9.018;2023-02-20T09:35:08;111992.50;;;-145.11;56.19
63033;BME280;49121;38.932;-9.018;2023-02-20T09:37:27;111992.50;;;-145.11;56.04
63033;BME280;49121;38.932;-9.018;2023-02-20T09:39:30;111992.50;;;-145.11;56.01
63033;BME280;49121;38.932;-9.018;2023-02-20T09:44:25;111992.50;;;-145.11;56.13
63033;BME280;49121;38.932;-9.018;2023-02-20T09:46:15;111992.50;;;-145.11;56.36
63033;BME280;49121;38.932;-9.018;2023-02-20T09:50:53;111992.50;;;-145.11;55.22
63033;BME280;49121;38.932;-9.018;2023-02-20T09:53:04;111992.50;;;-145.11;56.16
63033;BME280;49121;38.932;-9.018;2023-02-20T09:55:07;111992.50;;;-145.11;55.88
63033;BME280;49121;38.932;-9.018;2023-02-20T09:57:30;111992.50;;;-145.11;56.31
63033;BME280;49121;38.932;-9.018;2023-02-20T09:59:38;111992.50;;;-145.11;56.24
63033;BME280;49121;38.932;-9.018;2023-02-20T10:01:54;111992.50;;;-145.11;56.50
63033;BME280;49121;38.932;-9.018;2023-02-20T10:04:05;111992.50;;;-145.11;56.46
63033;BME280;49121;38.932;-9.018;2023-02-20T10:06:16;111992.50;;;-145.11;56.43
63033;BME280;49121;38.932;-9.018;2023-02-20T10:08:20;111992.50;;;-145.11;56.59
63033;BME280;49121;38.932;-9.018;2023-02-20T10:10:28;111992.50;;;-145.11;57.20
63033;BME280;49121;38.932;-9.018;2023-02-20T10:20:28;111992.50;;;-145.11;56.26
63033;BME280;49121;38.932;-9.018;2023-02-20T10:22:55;111992.50;;;-145.11;56.75
63033;BME280;49121;38.932;-9.018;2023-02-20T10:25:13;111992.50;;;-145.11;56.39
63033;BME280;49121;38.932;-9.018;2023-02-20T10:27:34;111992.50;;;-145.11;55.01
63033;BME280;49121;38.932;-9.018;2023-02-20T10:29:59;111992.50;;;-145.11;54.38
63033;BME280;49121;38.932;-9.018;2023-02-20T10:32:05;111992.50;;;-145.11;54.56
63033;BME280;49121;38.932;-9.018;2023-02-20T10:34:19;111992.50;;;-145.11;54.72
63033;BME280;49121;38.932;-9.018;2023-02-20T10:36:28;111992.50;;;-145.11;54.40
63033;BME280;49121;38.932;-9.018;2023-02-20T10:38:43;111992.50;;;-145.11;53.75
63033;BME280;49121;38.932;-9.018;2023-02-20T10:40:50;111992.50;;;-145.11;53.21
63033;BME280;49121;38.932;-9.018;2023-02-20T10:42:58;111992.50;;;-145.11;51.71
63033;BME280;49121;38.932;-9.018;2023-02-20T10:49:52;111992.50;;;-145.11;49.42
63033;BME280;49121;38.932;-9.018;2023-02-20T10:51:58;111992.50;;;-145.11;49.03
63033;BME280;49121;38.932;-9.018;2023-02-20T10:54:07;111992.50;;;-145.11;49.29
63033;BME280;49121;38.932;-9.018;2023-02-20T10:56:26;111992.50;;;-145.11;48.00
63033;BME280;49121;38.932;-9.018;2023-02-20T11:01:04;111992.50;;;-145.11;47.33
63033;BME280;49121;38.932;-9.018;2023-02-20T11:03:11;111992.50;;;-145.11;47.43
63033;BME280;49121;38.932;-9.018;2023-02-20T11:05:18;111992.50;;;-145.11;47.13
63033;BME280;49121;38.932;-9.018;2023-02-20T11:09:40;111992.50;;;-145.11;47.22
63033;BME280;49121;38.932;-9.018;2023-02-20T11:11:43;111992.50;;;-145.11;46.60
63033;BME280;49121;38.932;-9.018;2023-02-20T11:13:44;111992.50;;;-145.11;46.24
63033;BME280;49121;38.932;-9.018;2023-02-20T11:15:45;111992.50;;;-145.11;46.62
63033;BME280;49121;38.932;-9.018;2023-02-20T11:17:50;111992.50;;;-145.11;46.22
63033;BME280;49121;38.932;-9.018;2023-02-20T11:19:54;111992.50;;;-145.11;46.19
63033;BME280;49121;38.932;-9.018;2023-02-20T11:21:55;111992.50;;;-145.11;46.29
63033;BME280;49121;38.932;-9.018;2023-02-20T11:23:56;111992.50;;;-145.11;46.38
63033;BME280;49121;38.932;-9.018;2023-02-20T11:28:21;111992.50;;;-145.11;46.16
63033;BME280;49121;38.932;-9.018;2023-02-20T11:30:33;111992.50;;;-145.11;46.14
63033;BME280;49121;38.932;-9.018;2023-02-20T11:32:38;111992.50;;;-145.11;46.33
63033;BME280;49121;38.932;-9.018;2023-02-20T11:34:40;111992.50;;;-145.11;45.56
63033;BME280;49121;38.932;-9.018;2023-02-20T11:36:46;111992.50;;;-145.11;44.91
63033;BME280;49121;38.932;-9.018;2023-02-20T11:38:55;111992.50;;;-145.11;44.08
63033;BME280;49121;38.932;-9.018;2023-02-20T11:45:24;111992.50;;;-145.11;42.46
63033;BME280;49121;38.932;-9.018;2023-02-20T11:47:26;111992.50;;;-145.11;42.81
63033;BME280;49121;38.932;-9.018;2023-02-20T11:49:28;111992.50;;;-145.11;43.22
63033;BME280;49121;38.932;-9.018;2023-02-20T11:52:05;111992.50;;;-145.11;44.58
63033;BME280;49121;38.932;-9.018;2023-02-20T11:54:21;111992.50;;;-145.11;44.96
63033;BME280;49121;38.932;-9.018;2023-02-20T11:56:22;111992.50;;;-145.11;45.53
63033;BME280;49121;38.932;-9.018;2023-02-20T11:58:25;111992.50;;;-145.11;45.99
63033;BME280;49121;38.932;-9.018;2023-02-20T12:01:01;111992.50;;;-145.11;47.03
63033;BME280;49121;38.932;-9.018;2023-02-20T12:03:09;111992.50;;;-145.11;48.24
63033;BME280;49121;38.932;-9.018;2023-02-20T12:05:13;111992.50;;;-145.11;48.71